sensor_id;sensor_type;location;lat;lon;timestamp;P1;durP1;ratioP1;P2;durP2;ratioP2
12356;SDS011;6243;51.244;6.774;2022-10-16T00:00:43;5.13;;;2.77;;
12356;SDS011;6243;51.244;6.774;2022-10-16T00:03:08;6.10;;;3.70;;
12356;SDS011;6243;51.244;6.774;2022-10-16T00:05:37;4.93;;;3.03;;
12356;SDS011;6243;51.244;6.774;2022-10-16T00:08:04;3.90;;;2.60;;
12356;SDS011;6243;51.244;6.774;2022-10-16T00:10:31;6.17;;;3.33;;
12356;SDS011;6243;51.244;6.774;2022-10-16T00:12:57;4.27;;;2.90;;
12356;SDS011;6243;51.244;6.774;2022-10-16T00:15:22;4.47;;;4.07;;
12356;SDS011;6243;51.244;6.774;2022-10-16T00:17:48;6.37;;;4.17;;
12356;SDS011;6243;51.244;6.774;2022-10-16T00:20:13;6.80;;;4.97;;
12356;SDS011;6243;51.244;6.774;2022-10-16T00:22:39;7.57;;;4.50;;
12356;SDS011;6243;51.244;6.774;2022-10-16T00:25:04;7.03;;;4.03;;
12356;SDS011;6243;51.244;6.774;2022-10-16T00:27:31;10.33;;;9.27;;
12356;SDS011;6243;51.244;6.774;2022-10-16T00:29:58;13.00;;;11.90;;
12356;SDS011;6243;51.244;6.774;2022-10-16T00:32:23;13.00;;;11.80;;
12356;SDS011;6243;51.244;6.774;2022-10-16T00:34:48;21.27;;;19.17;;
12356;SDS011;6243;51.244;6.774;2022-10-16T00:37:14;17.80;;;16.17;;
12356;SDS011;6243;51.244;6.774;2022-10-16T00:39:39;21.20;;;19.20;;
12356;SDS011;6243;51.244;6.774;2022-10-16T00:42:05;19.20;;;17.23;;
12356;SDS011;6243;51.244;6.774;2022-10-16T00:44:45;15.90;;;14.50;;
12356;SDS011;6243;51.244;6.774;2022-10-16T00:47:15;13.57;;;12.33;;
12356;SDS011;6243;51.244;6.774;2022-10-16T00:49:44;11.30;;;10.27;;
12356;SDS011;6243;51.244;6.774;2022-10-16T00:52:11;8.57;;;7.63;;
12356;SDS011;6243;51.244;6.774;2022-10-16T00:54:38;8.27;;;6.30;;
12356;SDS011;6243;51.244;6.774;2022-10-16T00:57:05;7.40;;;4.60;;
12356;SDS011;6243;51.244;6.774;2022-10-16T00:59:32;4.23;;;3.30;;
12356;SDS011;6243;51.244;6.774;2022-10-16T01:02:00;3.63;;;2.50;;
12356;SDS011;6243;51.244;6.774;2022-10-16T01:04:26;3.97;;;2.27;;
12356;SDS011;6243;51.244;6.774;2022-10-16T01:06:58;2.97;;;2.00;;
12356;SDS011;6243;51.244;6.774;2022-10-16T01:09:32;2.50;;;2.10;;
12356;SDS011;6243;51.244;6.774;2022-10-16T01:12:05;3.33;;;2.33;;
12356;SDS011;6243;51.244;6.774;2022-10-16T01:14:37;3.00;;;2.00;;
12356;SDS011;6243;51.244;6.774;2022-10-16T01:17:13;2.40;;;1.90;;
12356;SDS011;6243;51.244;6.774;2022-10-16T01:22:43;4.50;;;2.20;;
12356;SDS011;6243;51.244;6.774;2022-10-16T01:25:16;3.20;;;2.30;;
12356;SDS011;6243;51.244;6.774;2022-10-16T01:27:50;3.27;;;2.00;;
12356;SDS011;6243;51.244;6.774;2022-10-16T01:30:17;4.23;;;2.10;;
12356;SDS011;6243;51.244;6.774;2022-10-16T01:32:46;3.70;;;2.33;;
12356;SDS011;6243;51.244;6.774;2022-10-16T01:35:18;7.50;;;2.20;;
12356;SDS011;6243;51.244;6.774;2022-10-16T01:37:49;4.10;;;2.30;;
12356;SDS011;6243;51.244;6.774;2022-10-16T01:40:19;2.07;;;1.83;;
12356;SDS011;6243;51.244;6.774;2022-10-16T01:42:48;2.83;;;2.20;;
12356;SDS011;6243;51.244;6.774;2022-10-16T01:45:18;2.50;;;1.93;;
12356;SDS011;6243;51.244;6.774;2022-10-16T01:47:45;3.43;;;2.10;;
12356;SDS011;6243;51.244;6.774;2022-10-16T01:50:13;4.87;;;2.17;;
12356;SDS011;6243;51.244;6.774;2022-10-16T01:52:42;2.67;;;1.83;;
12356;SDS011;6243;51.244;6.774;2022-10-16T01:55:10;2.13;;;1.67;;
12356;SDS011;6243;51.244;6.774;2022-10-16T01:57:40;2.13;;;1.90;;
12356;SDS011;6243;51.244;6.774;2022-10-16T02:00:11;2.47;;;1.60;;
12356;SDS011;6243;51.244;6.774;2022-10-16T02:02:39;2.17;;;1.93;;
12356;SDS011;6243;51.244;6.774;2022-10-16T02:05:08;3.17;;;2.00;;
12356;SDS011;6243;51.244;6.774;2022-10-16T02:07:38;2.23;;;1.60;;
12356;SDS011;6243;51.244;6.774;2022-10-16T02:10:04;2.87;;;1.90;;
12356;SDS011;6243;51.244;6.774;2022-10-16T02:12:31;3.00;;;1.83;;
12356;SDS011;6243;51.244;6.774;2022-10-16T02:14:58;2.90;;;1.63;;
12356;SDS011;6243;51.244;6.774;2022-10-16T02:17:24;7.60;;;2.20;;
12356;SDS011;6243;51.244;6.774;2022-10-16T02:19:50;1.80;;;1.70;;
12356;SDS011;6243;51.244;6.774;2022-10-16T02:22:20;3.03;;;1.63;;
12356;SDS011;6243;51.244;6.774;2022-10-16T02:24:51;3.03;;;2.00;;
12356;SDS011;6243;51.244;6.774;2022-10-16T02:27:23;4.03;;;1.90;;
12356;SDS011;6243;51.244;6.774;2022-10-16T02:29:53;3.57;;;1.90;;
12356;SDS011;6243;51.244;6.774;2022-10-16T02:32:26;2.10;;;1.80;;
12356;SDS011;6243;51.244;6.774;2022-10-16T02:34:55;2.13;;;1.93;;
12356;SDS011;6243;51.244;6.774;2022-10-16T02:37:23;3.30;;;1.80;;
12356;SDS011;6243;51.244;6.774;2022-10-16T02:39:50;2.43;;;1.67;;
12356;SDS011;6243;51.244;6.774;2022-10-16T02:42:17;2.33;;;1.80;;
12356;SDS011;6243;51.244;6.774;2022-10-16T02:44:43;3.60;;;1.70;;
12356;SDS011;6243;51.244;6.774;2022-10-16T02:47:09;2.27;;;1.60;;
12356;SDS011;6243;51.244;6.774;2022-10-16T02:49:35;3.40;;;1.80;;
12356;SDS011;6243;51.244;6.774;2022-10-16T02:52:01;2.40;;;1.83;;
12356;SDS011;6243;51.244;6.774;2022-10-16T02:54:27;2.47;;;1.70;;
12356;SDS011;6243;51.244;6.774;2022-10-16T02:56:52;3.03;;;1.83;;
12356;SDS011;6243;51.244;6.774;2022-10-16T02:59:17;1.93;;;1.70;;
12356;SDS011;6243;51.244;6.774;2022-10-16T03:01:43;3.60;;;1.57;;
12356;SDS011;6243;51.244;6.774;2022-10-16T03:04:08;3.17;;;1.60;;
12356;SDS011;6243;51.244;6.774;2022-10-16T03:06:35;1.50;;;1.40;;
12356;SDS011;6243;51.244;6.774;2022-10-16T03:09:01;2.07;;;1.63;;
12356;SDS011;6243;51.244;6.774;2022-10-16T03:11:26;3.63;;;1.70;;
12356;SDS011;6243;51.244;6.774;2022-10-16T03:13:52;2.90;;;1.60;;
12356;SDS011;6243;51.244;6.774;2022-10-16T03:16:17;1.53;;;1.43;;
12356;SDS011;6243;51.244;6.774;2022-10-16T03:18:43;3.13;;;1.30;;
12356;SDS011;6243;51.244;6.774;2022-10-16T03:21:08;1.63;;;1.53;;
12356;SDS011;6243;51.244;6.774;2022-10-16T03:23:35;1.43;;;1.40;;
12356;SDS011;6243;51.244;6.774;2022-10-16T03:26:00;2.40;;;1.77;;
12356;SDS011;6243;51.244;6.774;2022-10-16T03:28:26;2.07;;;1.60;;
12356;SDS011;6243;51.244;6.774;2022-10-16T03:30:51;2.10;;;1.43;;
12356;SDS011;6243;51.244;6.774;2022-10-16T03:33:17;3.13;;;1.57;;
12356;SDS011;6243;51.244;6.774;2022-10-16T03:35:42;1.57;;;1.47;;
12356;SDS011;6243;51.244;6.774;2022-10-16T03:38:15;2.87;;;1.60;;
12356;SDS011;6243;51.244;6.774;2022-10-16T03:40:42;2.77;;;1.43;;
12356;SDS011;6243;51.244;6.774;2022-10-16T03:43:07;6.83;;;1.83;;
12356;SDS011;6243;51.244;6.774;2022-10-16T03:45:33;1.60;;;1.50;;
12356;SDS011;6243;51.244;6.774;2022-10-16T03:47:58;4.10;;;1.77;;
12356;SDS011;6243;51.244;6.774;2022-10-16T03:50:24;5.03;;;1.63;;
12356;SDS011;6243;51.244;6.774;2022-10-16T03:52:49;3.40;;;1.67;;
12356;SDS011;6243;51.244;6.774;2022-10-16T03:55:15;2.57;;;1.73;;
12356;SDS011;6243;51.244;6.774;2022-10-16T03:57:41;1.80;;;1.70;;
12356;SDS011;6243;51.244;6.774;2022-10-16T04:00:07;2.27;;;2.03;;
12356;SDS011;6243;51.244;6.774;2022-10-16T04:02:34;2.47;;;1.50;;
12356;SDS011;6243;51.244;6.774;2022-10-16T04:04:59;1.90;;;1.70;;
12356;SDS011;6243;51.244;6.774;2022-10-16T04:07:25;3.50;;;1.90;;
12356;SDS011;6243;51.244;6.774;2022-10-16T04:09:50;2.27;;;1.73;;
12356;SDS011;6243;51.244;6.774;2022-10-16T04:12:16;2.43;;;1.60;;
12356;SDS011;6243;51.244;6.774;2022-10-16T04:14:42;3.37;;;1.60;;
12356;SDS011;6243;51.244;6.774;2022-10-16T04:17:08;2.40;;;1.70;;
12356;SDS011;6243;51.244;6.774;2022-10-16T04:19:33;1.60;;;1.50;;
12356;SDS011;6243;51.244;6.774;2022-10-16T04:21:59;4.37;;;1.87;;
12356;SDS011;6243;51.244;6.774;2022-10-16T04:24:24;3.53;;;1.70;;
12356;SDS011;6243;51.244;6.774;2022-10-16T04:26:50;3.00;;;1.73;;
12356;SDS011;6243;51.244;6.774;2022-10-16T04:29:15;2.53;;;1.80;;
12356;SDS011;6243;51.244;6.774;2022-10-16T04:31:42;5.43;;;2.03;;
12356;SDS011;6243;51.244;6.774;2022-10-16T04:34:08;1.77;;;1.67;;
12356;SDS011;6243;51.244;6.774;2022-10-16T04:36:33;1.80;;;1.40;;
12356;SDS011;6243;51.244;6.774;2022-10-16T04:38:59;1.67;;;1.57;;
12356;SDS011;6243;51.244;6.774;2022-10-16T04:41:24;2.20;;;1.80;;
12356;SDS011;6243;51.244;6.774;2022-10-16T04:43:49;2.53;;;1.77;;
12356;SDS011;6243;51.244;6.774;2022-10-16T04:46:15;2.07;;;1.53;;
12356;SDS011;6243;51.244;6.774;2022-10-16T04:48:42;2.73;;;1.80;;
12356;SDS011;6243;51.244;6.774;2022-10-16T04:51:07;3.57;;;1.80;;
12356;SDS011;6243;51.244;6.774;2022-10-16T04:53:33;3.17;;;1.77;;
12356;SDS011;6243;51.244;6.774;2022-10-16T04:55:58;2.13;;;1.73;;
12356;SDS011;6243;51.244;6.774;2022-10-16T04:58:24;3.57;;;1.93;;
12356;SDS011;6243;51.244;6.774;2022-10-16T05:00:49;2.10;;;1.60;;
12356;SDS011;6243;51.244;6.774;2022-10-16T05:03:15;2.70;;;1.90;;
12356;SDS011;6243;51.244;6.774;2022-10-16T05:05:43;2.27;;;1.93;;
12356;SDS011;6243;51.244;6.774;2022-10-16T05:08:09;2.50;;;1.77;;
12356;SDS011;6243;51.244;6.774;2022-10-16T05:10:35;2.83;;;2.00;;
12356;SDS011;6243;51.244;6.774;2022-10-16T05:13:00;2.23;;;1.80;;
12356;SDS011;6243;51.244;6.774;2022-10-16T05:15:26;2.70;;;2.00;;
12356;SDS011;6243;51.244;6.774;2022-10-16T05:17:52;3.00;;;2.00;;
12356;SDS011;6243;51.244;6.774;2022-10-16T05:20:18;5.23;;;1.93;;
12356;SDS011;6243;51.244;6.774;2022-10-16T05:22:45;2.60;;;1.70;;
12356;SDS011;6243;51.244;6.774;2022-10-16T05:25:10;1.90;;;1.77;;
12356;SDS011;6243;51.244;6.774;2022-10-16T05:27:36;1.63;;;1.53;;
12356;SDS011;6243;51.244;6.774;2022-10-16T05:30:01;2.00;;;1.80;;
12356;SDS011;6243;51.244;6.774;2022-10-16T05:32:27;2.00;;;1.80;;
12356;SDS011;6243;51.244;6.774;2022-10-16T05:34:52;1.87;;;1.77;;
12356;SDS011;6243;51.244;6.774;2022-10-16T05:37:18;2.80;;;2.17;;
12356;SDS011;6243;51.244;6.774;2022-10-16T05:39:45;3.73;;;1.97;;
12356;SDS011;6243;51.244;6.774;2022-10-16T05:42:10;2.40;;;1.53;;
12356;SDS011;6243;51.244;6.774;2022-10-16T05:44:36;1.87;;;1.77;;
12356;SDS011;6243;51.244;6.774;2022-10-16T05:47:01;2.97;;;1.97;;
12356;SDS011;6243;51.244;6.774;2022-10-16T05:49:27;3.63;;;1.90;;
12356;SDS011;6243;51.244;6.774;2022-10-16T05:51:52;3.87;;;1.93;;
12356;SDS011;6243;51.244;6.774;2022-10-16T05:54:18;2.47;;;1.87;;
12356;SDS011;6243;51.244;6.774;2022-10-16T05:56:45;5.97;;;2.50;;
12356;SDS011;6243;51.244;6.774;2022-10-16T05:59:10;4.50;;;2.83;;
12356;SDS011;6243;51.244;6.774;2022-10-16T06:01:36;2.07;;;1.97;;
12356;SDS011;6243;51.244;6.774;2022-10-16T06:04:01;3.23;;;1.77;;
12356;SDS011;6243;51.244;6.774;2022-10-16T06:06:27;2.93;;;1.70;;
12356;SDS011;6243;51.244;6.774;2022-10-16T06:08:54;2.43;;;1.80;;
12356;SDS011;6243;51.244;6.774;2022-10-16T06:11:21;1.70;;;1.60;;
12356;SDS011;6243;51.244;6.774;2022-10-16T06:13:50;3.80;;;1.80;;
12356;SDS011;6243;51.244;6.774;2022-10-16T06:16:16;4.73;;;1.83;;
12356;SDS011;6243;51.244;6.774;2022-10-16T06:18:42;2.00;;;1.60;;
12356;SDS011;6243;51.244;6.774;2022-10-16T06:21:08;2.70;;;1.70;;
12356;SDS011;6243;51.244;6.774;2022-10-16T06:23:34;2.40;;;1.77;;
12356;SDS011;6243;51.244;6.774;2022-10-16T06:26:04;1.60;;;1.50;;
12356;SDS011;6243;51.244;6.774;2022-10-16T06:28:30;2.43;;;2.00;;
12356;SDS011;6243;51.244;6.774;2022-10-16T06:30:59;1.70;;;1.60;;
12356;SDS011;6243;51.244;6.774;2022-10-16T06:33:25;3.03;;;2.07;;
12356;SDS011;6243;51.244;6.774;2022-10-16T06:35:50;3.77;;;1.90;;
12356;SDS011;6243;51.244;6.774;2022-10-16T06:38:16;2.30;;;1.90;;
12356;SDS011;6243;51.244;6.774;2022-10-16T06:40:41;3.67;;;2.10;;
12356;SDS011;6243;51.244;6.774;2022-10-16T06:43:07;2.90;;;1.83;;
12356;SDS011;6243;51.244;6.774;2022-10-16T06:45:32;3.60;;;2.00;;
12356;SDS011;6243;51.244;6.774;2022-10-16T06:47:59;1.93;;;1.83;;
12356;SDS011;6243;51.244;6.774;2022-10-16T06:50:25;3.23;;;2.43;;
12356;SDS011;6243;51.244;6.774;2022-10-16T06:52:50;2.77;;;1.70;;
12356;SDS011;6243;51.244;6.774;2022-10-16T06:55:16;4.03;;;2.10;;
12356;SDS011;6243;51.244;6.774;2022-10-16T06:57:41;3.33;;;1.80;;
12356;SDS011;6243;51.244;6.774;2022-10-16T07:00:07;2.70;;;1.90;;
12356;SDS011;6243;51.244;6.774;2022-10-16T07:02:33;3.87;;;2.10;;
12356;SDS011;6243;51.244;6.774;2022-10-16T07:05:00;1.83;;;1.70;;
12356;SDS011;6243;51.244;6.774;2022-10-16T07:07:26;4.00;;;1.80;;
12356;SDS011;6243;51.244;6.774;2022-10-16T07:09:51;2.23;;;1.60;;
12356;SDS011;6243;51.244;6.774;2022-10-16T07:12:17;1.60;;;1.50;;
12356;SDS011;6243;51.244;6.774;2022-10-16T07:14:42;1.77;;;1.57;;
12356;SDS011;6243;51.244;6.774;2022-10-16T07:17:08;2.00;;;1.70;;
12356;SDS011;6243;51.244;6.774;2022-10-16T07:19:33;3.70;;;1.87;;
12356;SDS011;6243;51.244;6.774;2022-10-16T07:22:00;2.67;;;1.90;;
12356;SDS011;6243;51.244;6.774;2022-10-16T07:24:25;2.27;;;2.07;;
12356;SDS011;6243;51.244;6.774;2022-10-16T07:26:51;2.30;;;1.80;;
12356;SDS011;6243;51.244;6.774;2022-10-16T07:29:17;3.10;;;2.17;;
12356;SDS011;6243;51.244;6.774;2022-10-16T07:31:45;3.40;;;2.00;;
12356;SDS011;6243;51.244;6.774;2022-10-16T07:34:11;2.90;;;2.13;;
12356;SDS011;6243;51.244;6.774;2022-10-16T07:36:38;2.70;;;2.50;;
12356;SDS011;6243;51.244;6.774;2022-10-16T07:39:05;2.03;;;1.80;;
12356;SDS011;6243;51.244;6.774;2022-10-16T07:41:30;2.83;;;2.27;;
12356;SDS011;6243;51.244;6.774;2022-10-16T07:43:56;5.40;;;2.30;;
12356;SDS011;6243;51.244;6.774;2022-10-16T07:46:22;4.10;;;2.20;;
12356;SDS011;6243;51.244;6.774;2022-10-16T07:48:48;3.50;;;1.60;;
12356;SDS011;6243;51.244;6.774;2022-10-16T07:51:14;3.37;;;1.97;;
12356;SDS011;6243;51.244;6.774;2022-10-16T07:53:41;2.13;;;1.93;;
12356;SDS011;6243;51.244;6.774;2022-10-16T07:56:08;3.03;;;1.87;;
12356;SDS011;6243;51.244;6.774;2022-10-16T07:58:34;2.07;;;1.87;;
12356;SDS011;6243;51.244;6.774;2022-10-16T08:01:03;4.77;;;2.30;;
12356;SDS011;6243;51.244;6.774;2022-10-16T08:03:29;2.20;;;1.80;;
12356;SDS011;6243;51.244;6.774;2022-10-16T08:05:56;3.20;;;2.10;;
12356;SDS011;6243;51.244;6.774;2022-10-16T08:08:22;3.00;;;1.97;;
12356;SDS011;6243;51.244;6.774;2022-10-16T08:10:47;3.10;;;1.67;;
12356;SDS011;6243;51.244;6.774;2022-10-16T08:13:14;1.87;;;1.60;;
12356;SDS011;6243;51.244;6.774;2022-10-16T08:15:40;2.40;;;1.63;;
12356;SDS011;6243;51.244;6.774;2022-10-16T08:18:05;2.53;;;1.60;;
12356;SDS011;6243;51.244;6.774;2022-10-16T08:20:31;1.80;;;1.60;;
12356;SDS011;6243;51.244;6.774;2022-10-16T08:22:58;1.50;;;1.40;;
12356;SDS011;6243;51.244;6.774;2022-10-16T08:25:25;3.83;;;1.37;;
12356;SDS011;6243;51.244;6.774;2022-10-16T08:27:51;1.80;;;1.20;;
12356;SDS011;6243;51.244;6.774;2022-10-16T08:30:18;4.03;;;1.47;;
12356;SDS011;6243;51.244;6.774;2022-10-16T08:32:46;3.83;;;1.40;;
12356;SDS011;6243;51.244;6.774;2022-10-16T08:35:12;3.13;;;1.30;;
12356;SDS011;6243;51.244;6.774;2022-10-16T08:37:38;1.67;;;1.17;;
12356;SDS011;6243;51.244;6.774;2022-10-16T08:40:04;2.00;;;1.27;;
12356;SDS011;6243;51.244;6.774;2022-10-16T08:42:41;1.40;;;1.03;;
12356;SDS011;6243;51.244;6.774;2022-10-16T08:45:23;1.43;;;1.13;;
12356;SDS011;6243;51.244;6.774;2022-10-16T08:48:00;1.17;;;1.00;;
12356;SDS011;6243;51.244;6.774;2022-10-16T08:50:36;2.70;;;1.10;;
12356;SDS011;6243;51.244;6.774;2022-10-16T08:53:04;2.90;;;1.10;;
12356;SDS011;6243;51.244;6.774;2022-10-16T08:55:31;0.93;;;0.90;;
12356;SDS011;6243;51.244;6.774;2022-10-16T08:58:05;2.57;;;1.07;;
12356;SDS011;6243;51.244;6.774;2022-10-16T09:00:38;2.60;;;1.00;;
12356;SDS011;6243;51.244;6.774;2022-10-16T09:03:05;1.23;;;0.90;;
12356;SDS011;6243;51.244;6.774;2022-10-16T09:05:45;2.70;;;1.10;;
12356;SDS011;6243;51.244;6.774;2022-10-16T09:08:21;1.90;;;0.80;;
12356;SDS011;6243;51.244;6.774;2022-10-16T09:10:55;1.03;;;0.83;;
12356;SDS011;6243;51.244;6.774;2022-10-16T09:13:23;1.93;;;0.77;;
12356;SDS011;6243;51.244;6.774;2022-10-16T09:15:58;1.67;;;1.00;;
12356;SDS011;6243;51.244;6.774;2022-10-16T09:18:37;2.30;;;1.00;;
12356;SDS011;6243;51.244;6.774;2022-10-16T09:21:13;1.93;;;1.17;;
12356;SDS011;6243;51.244;6.774;2022-10-16T09:23:43;1.63;;;1.00;;
12356;SDS011;6243;51.244;6.774;2022-10-16T09:26:09;1.47;;;1.00;;
12356;SDS011;6243;51.244;6.774;2022-10-16T09:28:37;0.97;;;0.73;;
12356;SDS011;6243;51.244;6.774;2022-10-16T09:31:05;1.23;;;0.93;;
12356;SDS011;6243;51.244;6.774;2022-10-16T09:33:33;2.10;;;1.07;;
12356;SDS011;6243;51.244;6.774;2022-10-16T09:36:02;2.63;;;0.70;;
12356;SDS011;6243;51.244;6.774;2022-10-16T09:38:30;3.70;;;1.20;;
12356;SDS011;6243;51.244;6.774;2022-10-16T09:40:57;2.07;;;1.20;;
12356;SDS011;6243;51.244;6.774;2022-10-16T09:43:25;1.40;;;0.73;;
12356;SDS011;6243;51.244;6.774;2022-10-16T09:45:54;3.83;;;1.10;;
12356;SDS011;6243;51.244;6.774;2022-10-16T09:48:22;2.70;;;0.90;;
12356;SDS011;6243;51.244;6.774;2022-10-16T09:50:55;2.67;;;0.90;;
12356;SDS011;6243;51.244;6.774;2022-10-16T09:53:21;8.47;;;1.40;;
12356;SDS011;6243;51.244;6.774;2022-10-16T09:55:49;2.10;;;1.10;;
12356;SDS011;6243;51.244;6.774;2022-10-16T09:58:15;2.73;;;1.00;;
12356;SDS011;6243;51.244;6.774;2022-10-16T10:00:41;1.30;;;1.10;;
12356;SDS011;6243;51.244;6.774;2022-10-16T10:03:15;1.80;;;1.20;;
12356;SDS011;6243;51.244;6.774;2022-10-16T10:05:59;2.03;;;1.03;;
12356;SDS011;6243;51.244;6.774;2022-10-16T10:08:25;1.37;;;0.70;;
12356;SDS011;6243;51.244;6.774;2022-10-16T10:10:51;1.93;;;0.60;;
12356;SDS011;6243;51.244;6.774;2022-10-16T10:13:17;1.90;;;0.80;;
12356;SDS011;6243;51.244;6.774;2022-10-16T10:15:44;3.33;;;0.90;;
12356;SDS011;6243;51.244;6.774;2022-10-16T10:18:15;0.83;;;0.53;;
12356;SDS011;6243;51.244;6.774;2022-10-16T10:20:44;1.97;;;0.87;;
12356;SDS011;6243;51.244;6.774;2022-10-16T10:23:19;2.27;;;0.93;;
12356;SDS011;6243;51.244;6.774;2022-10-16T10:25:49;1.97;;;1.30;;
12356;SDS011;6243;51.244;6.774;2022-10-16T10:28:28;1.83;;;0.67;;
12356;SDS011;6243;51.244;6.774;2022-10-16T10:31:12;1.70;;;0.80;;
12356;SDS011;6243;51.244;6.774;2022-10-16T10:33:46;1.00;;;0.77;;
12356;SDS011;6243;51.244;6.774;2022-10-16T10:36:22;3.30;;;0.90;;
12356;SDS011;6243;51.244;6.774;2022-10-16T10:38:54;3.07;;;0.80;;
12356;SDS011;6243;51.244;6.774;2022-10-16T10:41:35;1.17;;;0.70;;
12356;SDS011;6243;51.244;6.774;2022-10-16T10:44:22;1.83;;;0.90;;
12356;SDS011;6243;51.244;6.774;2022-10-16T10:47:00;1.00;;;0.80;;
12356;SDS011;6243;51.244;6.774;2022-10-16T10:49:36;2.20;;;0.73;;
12356;SDS011;6243;51.244;6.774;2022-10-16T10:52:23;3.03;;;0.80;;
12356;SDS011;6243;51.244;6.774;2022-10-16T10:55:09;2.83;;;0.83;;
12356;SDS011;6243;51.244;6.774;2022-10-16T10:57:40;1.77;;;0.77;;
12356;SDS011;6243;51.244;6.774;2022-10-16T11:00:17;1.87;;;1.07;;
12356;SDS011;6243;51.244;6.774;2022-10-16T11:02:48;1.43;;;0.90;;
12356;SDS011;6243;51.244;6.774;2022-10-16T11:05:27;1.50;;;0.70;;
12356;SDS011;6243;51.244;6.774;2022-10-16T11:08:02;4.10;;;1.20;;
12356;SDS011;6243;51.244;6.774;2022-10-16T11:10:39;1.97;;;0.90;;
12356;SDS011;6243;51.244;6.774;2022-10-16T11:13:10;3.60;;;0.93;;
12356;SDS011;6243;51.244;6.774;2022-10-16T11:15:50;3.00;;;1.03;;
12356;SDS011;6243;51.244;6.774;2022-10-16T11:18:19;1.30;;;1.00;;
12356;SDS011;6243;51.244;6.774;2022-10-16T11:20:50;2.07;;;0.67;;
12356;SDS011;6243;51.244;6.774;2022-10-16T11:23:22;1.10;;;0.73;;
12356;SDS011;6243;51.244;6.774;2022-10-16T11:25:51;2.90;;;0.90;;
12356;SDS011;6243;51.244;6.774;2022-10-16T11:28:23;2.43;;;0.90;;
12356;SDS011;6243;51.244;6.774;2022-10-16T11:30:57;2.07;;;0.87;;
12356;SDS011;6243;51.244;6.774;2022-10-16T11:33:27;2.07;;;0.73;;
12356;SDS011;6243;51.244;6.774;2022-10-16T11:36:00;2.20;;;1.20;;
12356;SDS011;6243;51.244;6.774;2022-10-16T11:38:30;1.73;;;1.00;;
12356;SDS011;6243;51.244;6.774;2022-10-16T11:41:02;2.83;;;1.30;;
12356;SDS011;6243;51.244;6.774;2022-10-16T11:43:35;3.40;;;0.80;;
12356;SDS011;6243;51.244;6.774;2022-10-16T11:46:04;2.37;;;0.93;;
12356;SDS011;6243;51.244;6.774;2022-10-16T11:48:38;2.10;;;0.80;;
12356;SDS011;6243;51.244;6.774;2022-10-16T11:51:10;1.10;;;0.87;;
12356;SDS011;6243;51.244;6.774;2022-10-16T11:53:44;1.93;;;0.80;;
12356;SDS011;6243;51.244;6.774;2022-10-16T11:56:13;1.90;;;0.87;;
12356;SDS011;6243;51.244;6.774;2022-10-16T11:58:41;1.43;;;0.90;;
12356;SDS011;6243;51.244;6.774;2022-10-16T12:01:17;2.73;;;0.93;;
12356;SDS011;6243;51.244;6.774;2022-10-16T12:03:48;1.83;;;0.80;;
12356;SDS011;6243;51.244;6.774;2022-10-16T12:06:27;1.97;;;0.90;;
12356;SDS011;6243;51.244;6.774;2022-10-16T12:09:00;2.27;;;0.97;;
12356;SDS011;6243;51.244;6.774;2022-10-16T12:11:34;2.53;;;0.87;;
12356;SDS011;6243;51.244;6.774;2022-10-16T12:16:59;1.23;;;0.77;;
12356;SDS011;6243;51.244;6.774;2022-10-16T12:19:25;2.50;;;0.90;;
12356;SDS011;6243;51.244;6.774;2022-10-16T12:21:54;1.40;;;1.30;;
12356;SDS011;6243;51.244;6.774;2022-10-16T12:24:26;2.07;;;1.10;;
12356;SDS011;6243;51.244;6.774;2022-10-16T12:26:56;2.80;;;1.10;;
12356;SDS011;6243;51.244;6.774;2022-10-16T12:29:23;0.90;;;0.77;;
12356;SDS011;6243;51.244;6.774;2022-10-16T12:31:57;2.70;;;1.20;;
12356;SDS011;6243;51.244;6.774;2022-10-16T12:34:24;1.97;;;1.13;;
12356;SDS011;6243;51.244;6.774;2022-10-16T12:36:53;1.43;;;0.70;;
12356;SDS011;6243;51.244;6.774;2022-10-16T12:39:20;1.43;;;0.80;;
12356;SDS011;6243;51.244;6.774;2022-10-16T12:41:48;1.97;;;0.70;;
12356;SDS011;6243;51.244;6.774;2022-10-16T12:44:26;1.77;;;0.97;;
12356;SDS011;6243;51.244;6.774;2022-10-16T12:46:58;2.37;;;0.90;;
12356;SDS011;6243;51.244;6.774;2022-10-16T12:49:29;1.93;;;0.60;;
12356;SDS011;6243;51.244;6.774;2022-10-16T12:51:57;0.80;;;0.50;;
12356;SDS011;6243;51.244;6.774;2022-10-16T12:54:25;1.60;;;0.90;;
12356;SDS011;6243;51.244;6.774;2022-10-16T12:56:59;1.43;;;0.80;;
12356;SDS011;6243;51.244;6.774;2022-10-16T12:59:37;1.13;;;0.80;;
12356;SDS011;6243;51.244;6.774;2022-10-16T13:02:18;2.77;;;0.97;;
12356;SDS011;6243;51.244;6.774;2022-10-16T13:05:03;2.27;;;0.77;;
12356;SDS011;6243;51.244;6.774;2022-10-16T13:07:46;1.27;;;0.70;;
12356;SDS011;6243;51.244;6.774;2022-10-16T13:10:23;2.10;;;0.80;;
12356;SDS011;6243;51.244;6.774;2022-10-16T13:13:12;1.67;;;0.90;;
12356;SDS011;6243;51.244;6.774;2022-10-16T13:15:54;1.50;;;0.97;;
12356;SDS011;6243;51.244;6.774;2022-10-16T13:18:29;0.97;;;0.80;;
12356;SDS011;6243;51.244;6.774;2022-10-16T13:21:09;1.17;;;0.70;;
12356;SDS011;6243;51.244;6.774;2022-10-16T13:23:48;1.03;;;0.80;;
12356;SDS011;6243;51.244;6.774;2022-10-16T13:26:22;2.67;;;0.70;;
12356;SDS011;6243;51.244;6.774;2022-10-16T13:28:59;2.17;;;1.00;;
12356;SDS011;6243;51.244;6.774;2022-10-16T13:31:26;2.40;;;0.93;;
12356;SDS011;6243;51.244;6.774;2022-10-16T13:33:53;1.00;;;0.80;;
12356;SDS011;6243;51.244;6.774;2022-10-16T13:36:22;1.27;;;0.67;;
12356;SDS011;6243;51.244;6.774;2022-10-16T13:38:48;0.77;;;0.60;;
12356;SDS011;6243;51.244;6.774;2022-10-16T13:41:25;2.53;;;0.70;;
12356;SDS011;6243;51.244;6.774;2022-10-16T13:43:51;2.07;;;0.53;;
12356;SDS011;6243;51.244;6.774;2022-10-16T13:46:21;1.00;;;0.67;;
12356;SDS011;6243;51.244;6.774;2022-10-16T13:48:55;1.60;;;0.57;;
12356;SDS011;6243;51.244;6.774;2022-10-16T13:51:22;0.80;;;0.80;;
12356;SDS011;6243;51.244;6.774;2022-10-16T13:53:47;1.30;;;1.10;;
12356;SDS011;6243;51.244;6.774;2022-10-16T13:56:14;1.27;;;0.73;;
12356;SDS011;6243;51.244;6.774;2022-10-16T13:58:41;1.43;;;0.80;;
12356;SDS011;6243;51.244;6.774;2022-10-16T14:01:14;2.00;;;0.90;;
12356;SDS011;6243;51.244;6.774;2022-10-16T14:03:43;1.47;;;0.70;;
12356;SDS011;6243;51.244;6.774;2022-10-16T14:06:11;1.50;;;0.90;;
12356;SDS011;6243;51.244;6.774;2022-10-16T14:08:40;2.13;;;0.70;;
12356;SDS011;6243;51.244;6.774;2022-10-16T14:11:09;0.93;;;0.80;;
12356;SDS011;6243;51.244;6.774;2022-10-16T14:13:36;3.47;;;0.80;;
12356;SDS011;6243;51.244;6.774;2022-10-16T14:16:05;2.33;;;0.70;;
12356;SDS011;6243;51.244;6.774;2022-10-16T14:18:34;1.33;;;1.23;;
12356;SDS011;6243;51.244;6.774;2022-10-16T14:21:05;1.23;;;0.97;;
12356;SDS011;6243;51.244;6.774;2022-10-16T14:23:33;1.57;;;0.90;;
12356;SDS011;6243;51.244;6.774;2022-10-16T14:28:48;2.10;;;0.80;;
12356;SDS011;6243;51.244;6.774;2022-10-16T14:31:27;1.23;;;0.90;;
12356;SDS011;6243;51.244;6.774;2022-10-16T14:33:54;0.90;;;0.77;;
12356;SDS011;6243;51.244;6.774;2022-10-16T14:36:21;0.90;;;0.90;;
12356;SDS011;6243;51.244;6.774;2022-10-16T14:38:49;3.33;;;1.00;;
12356;SDS011;6243;51.244;6.774;2022-10-16T14:41:21;1.50;;;1.00;;
12356;SDS011;6243;51.244;6.774;2022-10-16T14:43:49;1.77;;;1.00;;
12356;SDS011;6243;51.244;6.774;2022-10-16T14:46:17;1.53;;;0.97;;
12356;SDS011;6243;51.244;6.774;2022-10-16T14:48:45;2.37;;;1.20;;
12356;SDS011;6243;51.244;6.774;2022-10-16T14:51:13;2.30;;;0.87;;
12356;SDS011;6243;51.244;6.774;2022-10-16T14:53:41;3.17;;;1.10;;
12356;SDS011;6243;51.244;6.774;2022-10-16T14:56:07;2.63;;;1.10;;
12356;SDS011;6243;51.244;6.774;2022-10-16T14:58:34;1.20;;;0.80;;
12356;SDS011;6243;51.244;6.774;2022-10-16T15:01:00;1.73;;;0.87;;
12356;SDS011;6243;51.244;6.774;2022-10-16T15:03:25;1.47;;;1.00;;
12356;SDS011;6243;51.244;6.774;2022-10-16T15:05:51;2.30;;;0.83;;
12356;SDS011;6243;51.244;6.774;2022-10-16T15:08:17;2.33;;;1.10;;
12356;SDS011;6243;51.244;6.774;2022-10-16T15:10:44;1.60;;;0.80;;
12356;SDS011;6243;51.244;6.774;2022-10-16T15:13:11;2.27;;;1.00;;
12356;SDS011;6243;51.244;6.774;2022-10-16T15:15:38;3.27;;;1.30;;
12356;SDS011;6243;51.244;6.774;2022-10-16T15:18:07;1.60;;;1.30;;